Pasadena, TX

3:34 PM CST on March 03, 2015 (GMT -0600)
Houston / Dunn Helistop | Change Station
CLOSE
Current Station
Airport
Location: Houston / Dunn Helistop,
Elevation: 226 ft
Nearby Weather Stations

Elev 226 ft 29.71 °N, 95.40 °W | Updated 19 minutes ago

Overcast
Overcast
77 °F
Feels Like 77 °F
N
16
Wind Variable Wind from SSE
Gusts 26 mph

Today
High -- | Low -- °F
--% Chance of Precip.
Yesterday
High -- | Low -- °F
Precip. -- in
6:44 AM 6:21 PM
Waxing Gibbous, 97% visible
Pressure 29.84 in
Visibility 10.0 miles
Clouds Scattered Clouds 3300 ft
Scattered Clouds 4100 ft
Dew Point 64 °F
Humidity 65%
Rainfall 0.00 in
Snow Depth Not available.
UV 3 out of 12
Pollen 8.90 out of 12
Air Quality Not available.
Flu Activity Not available.
METAR KMCJ 032115Z AUTO 16014G23KT 010V040 10SM SCT033 SCT041 25/18 A2984 RMK AO1

More Conditions Fewer Conditions

Pressure 29.84 in
Visibility 10.0 miles
Clouds Scattered Clouds 3300 ft
Scattered Clouds 4100 ft
Dew Point 64 °F
Humidity 65%
Rainfall 0.00 in
Snow Depth Not available.
UV 3 out of 12
Pollen 8.90 out of 12
Air Quality Not available.
Flu Activity Not available.
METAR KMCJ 032115Z AUTO 16014G23KT 010V040 10SM SCT033 SCT041 25/18 A2984 RMK AO1

More Conditions Fewer Conditions

10-Day Weather Forecast

Almanac

Astronomy

Mar. 03, 2015 Rise Set
Actual Time
Civil Twilight
Nautical Twilight
Astronomical Twilight
Moon
Length of Visible Light
Length of Day
Tomorrow will be .
, % of the Moon is Illuminated

Today's Extremes

State Highs State Lows

Community

WunderPhotos

Upload Photos

1,802,261 photos uploaded!

WunderBlogs® & News

Nearby

Air Quality

  Air Quality AQ Index Pollutant
Not available.

Snow Depth

Station Depth Elevation

Earthquake Activity

City Distance Mag. Time & Date
Minimum magnitude displayed is 2.5.

Coastal Water Temperatures

Place Temperature

Nearby Weather Stations